Terminal Aerodrome Forecast
Issued by NWS

Home | Current Version | Previous Version | Text Only | Print | Product List | Glossary On
Versions: 1 2 3 4 5 6 7 8 9 10 11 12 13 14 15 16 17 18 19 20
000
FTUS43 KDLH 291122
TAFHIB
TAF
KHIB 291122Z 2912/3012 VRB03KT P6SM OVC035
     FM291700 11007KT P6SM BKN040
     FM300000 VRB02KT P6SM SKC
     FM300600 00000KT 3SM BR FEW003=

USA.gov is the U.S. government's official web portal to all federal, state and local government web resources and services.